Terminal Aerodrome Forecast
Issued by NWS Boston, MA

Home | Current Version | Previous Version | Text Only | Print | Product List | Glossary Off
Versions: 1 2 3 4 5 6 7 8 9 10 11 12 13 14 15 16 17 18 19 20 21 22 23 24 25 26 27 28 29 30 31 32 33 34 35 36 37 38 39 40 41 42 43
000 FTUS41 KBOX 280521 TAFPVD TAF KPVD 280521Z 2806/2906 27005KT P6SM BKN060 FM281100 35007KT P6SM SCT250 FM281500 34010G20KT P6SM FEW050 FM282300 33007KT P6SM SKC=

USA.gov is the U.S. government's official web portal to all federal, state and local government web resources and services.